Exy Johnson — WDB3395 — position and weather

sailwx.info

Track history (hours):
 
Tides and Currents Weather Stations Pressure Air Temp Water Temp Dewpoint Dewpoint Depression Visibility Wind Speed Wind Dir Waves Ship Positions

Exy Johnson (United States)

Ship's website: http://www.lamitopsail.org/index.asp

Owner: Los Angeles Maritime Institute, San Pedro, CA. More information available from US FCC via Universal Licensing System and Coast Guard Vessel Documentation Center.

Last reported at 2017-May-29 10:58 UTC. Time now 2017-May-29 11:27 UTC.
Position N 33°44' W 118°17'.

Length 34 m; draft 3.7 m.

Type: Sailing vessel. MMSI: 366883970.

Date/timePositionNaut miles runAvg speedWind from/ knotsBaromVisibWave heightAir tempDewpointWater temp
2017-May-29 10:58N 33°44' W 118°17'0 0.0
2017-May-29 08:10N 33°44' W 118°17'0 0.0
2017-May-29 07:46N 33°44' W 118°17'0 0.0
2017-May-29 07:27N 33°44' W 118°17'0 0.0
2017-May-29 06:56N 33°44' W 118°17'0 0.0
2017-May-29 06:24N 33°44' W 118°17'0 0.0
2017-May-29 05:37N 33°44' W 118°17'0 0.0
2017-May-29 05:20N 33°44' W 118°17'0 0.0
2017-May-29 04:39N 33°44' W 118°17'0 0.0
2017-May-29 04:25N 33°44' W 118°17'0 0.0
2017-May-29 03:56N 33°44' W 118°17'0 0.0
2017-May-29 03:10N 33°44' W 118°17'0 0.0
2017-May-29 02:55N 33°44' W 118°17'0 0.0
2017-May-29 02:14N 33°44' W 118°17'0 0.0
2017-May-29 01:40N 33°44' W 118°17'0 0.0
2017-May-29 01:28N 33°44' W 118°17'0 0.0
2017-May-29 01:00N 33°44' W 118°17'0 0.0
2017-May-29 00:25N 33°44' W 118°17'0 0.0
2017-May-28 23:59N 33°44' W 118°17'0 0.0
2017-May-28 23:29N 33°44' W 118°17'0 0.0
2017-May-28 22:43N 33°44' W 118°17'0 0.0
2017-May-28 22:25N 33°44' W 118°17'0 0.0
2017-May-28 21:59N 33°44' W 118°17'0 0.0
2017-May-28 21:29N 33°44' W 118°17'0 0.0
2017-May-28 10:30N 33°44' W 118°17'0 0.0
2017-May-28 09:56N 33°44' W 118°17'0 0.0
2017-May-28 08:41N 33°44' W 118°17'0 0.0
2017-May-28 08:30N 33°44' W 118°17'0 0.0
2017-May-28 07:56N 33°44' W 118°17'0 0.0
2017-May-28 07:28N 33°44' W 118°17'0 0.0
2017-May-28 06:57N 33°44' W 118°17'0 0.0
2017-May-28 06:27N 33°44' W 118°17'0 0.0
2017-May-28 05:57N 33°44' W 118°17'0 0.0
2017-May-28 05:26N 33°44' W 118°17'0 0.0
2017-May-28 04:54N 33°44' W 118°17'0 0.0
2017-May-28 04:24N 33°44' W 118°17'0 0.0
2017-May-28 03:53N 33°44' W 118°17'0 0.0
2017-May-28 03:29N 33°44' W 118°17'  
2017-May-24 01:36N 33°30' W 118°28'0 0.1
2017-May-24 01:30N 33°30' W 118°28'3 5.4
2017-May-24 01:00N 33°28' W 118°31'0 0.7
2017-May-24 00:28N 33°28' W 118°31'0 0.0
2017-May-23 23:58N 33°28' W 118°31'0 0.0
2017-May-23 23:28N 33°28' W 118°31'0 0.0
2017-May-23 23:00N 33°28' W 118°31'0 0.0
2017-May-23 21:29N 33°28' W 118°31'0 0.0
2017-May-23 20:52N 33°28' W 118°31'0 0.0
2017-May-23 20:25N 33°28' W 118°31'0 0.0
2017-May-23 19:46N 33°28' W 118°31'0 0.0
2017-May-23 19:30N 33°28' W 118°31'0 0.0
2017-May-23 19:00N 33°28' W 118°31'0 0.1
2017-May-23 18:28N 33°28' W 118°31'1 1.5
2017-May-23 18:00N 33°29' W 118°32'1 2.6
2017-May-23 17:28N 33°30' W 118°33'2 4.0
2017-May-23 16:59N 33°31' W 118°34'3 5.5
2017-May-23 16:30N 33°33' W 118°37'1 2.9
2017-May-23 16:00N 33°33' W 118°38'1 1.2
2017-May-23 15:30N 33°33' W 118°39'1 2.7
2017-May-23 15:00N 33°32' W 118°38'5 5.2
2017-May-23 14:00N 33°30' W 118°32'2 3.4
2017-May-23 13:18N 33°28' W 118°30'2 6.7
2017-May-23 12:59N 33°27' W 118°27'3 5.4
2017-May-23 12:30N 33°26' W 118°25'3 5.2
2017-May-23 12:00N 33°25' W 118°22'1 2.2
2017-May-23 11:30N 33°24' W 118°22'0 0.0
2017-May-23 09:43N 33°24' W 118°22'0 0.0
2017-May-23 09:25N 33°24' W 118°22'0 0.0
2017-May-23 08:55N 33°24' W 118°22'0 0.0
2017-May-23 08:28N 33°24' W 118°22'0 0.0
2017-May-23 07:55N 33°24' W 118°22'0 0.0
2017-May-23 07:19N 33°24' W 118°22'0 0.0
2017-May-23 06:49N 33°24' W 118°22'0 0.0
2017-May-23 05:13N 33°24' W 118°22'0 0.0
2017-May-23 04:58N 33°24' W 118°22'0 0.0
2017-May-23 04:30N 33°24' W 118°22'0 0.0
2017-May-23 04:00N 33°24' W 118°22'0 0.0
2017-May-23 03:30N 33°24' W 118°22'0 0.0
2017-May-23 03:00N 33°24' W 118°22'0 0.0
2017-May-23 02:26N 33°24' W 118°22'0 0.0
2017-May-23 01:59N 33°24' W 118°22'0 0.0
2017-May-23 01:30N 33°24' W 118°22'0 0.4
2017-May-23 01:00N 33°24' W 118°22'2 4.3
2017-May-23 00:29N 33°26' W 118°23'7 6.5
2017-May-22 23:28N 33°32' W 118°19'4 5.5
2017-May-22 22:47N 33°35' W 118°17'2 5.0
2017-May-22 22:28N 33°36' W 118°15'2 4.8
2017-May-22 22:00N 33°38' W 118°14'2 4.7
2017-May-22 21:30N 33°41' W 118°14'2 3.8
2017-May-22 21:00N 33°42' W 118°15'1 2.6
2017-May-22 20:30N 33°43' W 118°16'1 0.3
2017-May-22 17:51N 33°44' W 118°17'0 0.0
2017-May-22 17:29N 33°44' W 118°17'0 0.0
2017-May-22 15:15N 33°44' W 118°17'0 0.0
2017-May-22 14:00N 33°44' W 118°17'0 0.0
2017-May-22 07:33N 33°44' W 118°17'0 0.0
2017-May-22 07:13N 33°44' W 118°17'0 0.0
2017-May-22 00:25N 33°44' W 118°17'0 0.0
2017-May-21 23:55N 33°44' W 118°17'0 0.0
2017-May-21 23:29N 33°44' W 118°17'0 0.0
2017-May-21 23:00N 33°44' W 118°17'0 0.0
2017-May-21 22:23N 33°44' W 118°17'0 0.0
2017-May-21 21:57N 33°44' W 118°17'0 0.0
2017-May-21 21:22N 33°44' W 118°17'0 0.0
2017-May-21 20:56N 33°44' W 118°17'0 0.0
2017-May-21 13:29N 33°44' W 118°17'0 0.0
2017-May-21 12:23N 33°44' W 118°17'0 0.0
2017-May-21 12:00N 33°44' W 118°17'0 0.0
2017-May-21 09:35N 33°44' W 118°17'0 0.0
2017-May-21 09:29N 33°44' W 118°17'0 0.0
2017-May-21 08:59N 33°44' W 118°17'0 0.0
2017-May-21 08:30N 33°44' W 118°17'0 0.0
2017-May-21 07:44N 33°44' W 118°17'0 0.0
2017-May-21 07:29N 33°44' W 118°17'0 0.0
2017-May-21 06:59N 33°44' W 118°17'0 0.0
2017-May-21 06:29N 33°44' W 118°17'0 0.0
2017-May-21 05:57N 33°44' W 118°17'0 0.0
2017-May-21 05:26N 33°44' W 118°17'0 0.0
2017-May-21 04:52N 33°44' W 118°17'0 0.0
2017-May-21 03:37N 33°44' W 118°17'0 0.0
2017-May-21 03:29N 33°44' W 118°17'0 0.0
2017-May-21 02:48N 33°44' W 118°17'0 0.0
2017-May-21 02:09N 33°44' W 118°17'0 0.0
2017-May-21 01:53N 33°44' W 118°17'0 0.0
2017-May-19 23:59N 33°44' W 118°17'0 0.0
2017-May-19 23:30N 33°44' W 118°17'0 0.0
2017-May-19 22:58N 33°44' W 118°17'0 0.0
2017-May-19 22:29N 33°44' W 118°17'0 0.2
2017-May-19 19:42N 33°44' W 118°17'0 0.3
2017-May-19 19:25N 33°44' W 118°17'1 1.4
2017-May-19 18:44N 33°43' W 118°16'0 1.5
2017-May-19 18:29N 33°43' W 118°16'0 0.6
2017-May-19 18:00N 33°43' W 118°16'1 1.1
2017-May-19 17:30N 33°43' W 118°16'1 1.1
2017-May-19 16:46N 33°44' W 118°17'0 0.0
2017-May-19 14:56N 33°44' W 118°17'0 0.0
2017-May-19 13:59N 33°44' W 118°17'  
Track history (hours):
 
Tides and Currents Weather Stations Pressure Air Temp Water Temp Dewpoint Dewpoint Depression Visibility Wind Speed Wind Dir Waves Ship Positions

Exy Johnson (United States)

Ship's website: http://www.lamitopsail.org/index.asp

Owner: Los Angeles Maritime Institute, San Pedro, CA. More information available from US FCC via Universal Licensing System and Coast Guard Vessel Documentation Center.

Last reported at 2017-May-29 10:58 UTC. Time now 2017-May-29 11:27 UTC.
Position N 33°44' W 118°17'.

Length 34 m; draft 3.7 m.

Type: Sailing vessel. MMSI: 366883970.

Date/timePositionNaut miles runAvg speedWind from/ knotsBaromVisibWave heightAir tempDewpointWater temp
2017-May-29 10:58N 33°44' W 118°17'0 0.0
2017-May-29 08:10N 33°44' W 118°17'0 0.0
2017-May-29 07:46N 33°44' W 118°17'0 0.0
2017-May-29 07:27N 33°44' W 118°17'0 0.0
2017-May-29 06:56N 33°44' W 118°17'0 0.0
2017-May-29 06:24N 33°44' W 118°17'0 0.0
2017-May-29 05:37N 33°44' W 118°17'0 0.0
2017-May-29 05:20N 33°44' W 118°17'0 0.0
2017-May-29 04:39N 33°44' W 118°17'0 0.0
2017-May-29 04:25N 33°44' W 118°17'0 0.0
2017-May-29 03:56N 33°44' W 118°17'0 0.0
2017-May-29 03:10N 33°44' W 118°17'0 0.0
2017-May-29 02:55N 33°44' W 118°17'0 0.0
2017-May-29 02:14N 33°44' W 118°17'0 0.0
2017-May-29 01:40N 33°44' W 118°17'0 0.0
2017-May-29 01:28N 33°44' W 118°17'0 0.0
2017-May-29 01:00N 33°44' W 118°17'0 0.0
2017-May-29 00:25N 33°44' W 118°17'0 0.0
2017-May-28 23:59N 33°44' W 118°17'0 0.0
2017-May-28 23:29N 33°44' W 118°17'0 0.0
2017-May-28 22:43N 33°44' W 118°17'0 0.0
2017-May-28 22:25N 33°44' W 118°17'0 0.0
2017-May-28 21:59N 33°44' W 118°17'0 0.0
2017-May-28 21:29N 33°44' W 118°17'0 0.0
2017-May-28 10:30N 33°44' W 118°17'0 0.0
2017-May-28 09:56N 33°44' W 118°17'0 0.0
2017-May-28 08:41N 33°44' W 118°17'0 0.0
2017-May-28 08:30N 33°44' W 118°17'0 0.0
2017-May-28 07:56N 33°44' W 118°17'0 0.0
2017-May-28 07:28N 33°44' W 118°17'0 0.0
2017-May-28 06:57N 33°44' W 118°17'0 0.0
2017-May-28 06:27N 33°44' W 118°17'0 0.0
2017-May-28 05:57N 33°44' W 118°17'0 0.0
2017-May-28 05:26N 33°44' W 118°17'0 0.0
2017-May-28 04:54N 33°44' W 118°17'0 0.0
2017-May-28 04:24N 33°44' W 118°17'0 0.0
2017-May-28 03:53N 33°44' W 118°17'0 0.0
2017-May-28 03:29N 33°44' W 118°17'  
2017-May-24 01:36N 33°30' W 118°28'0 0.1
2017-May-24 01:30N 33°30' W 118°28'3 5.4
2017-May-24 01:00N 33°28' W 118°31'0 0.7
2017-May-24 00:28N 33°28' W 118°31'0 0.0
2017-May-23 23:58N 33°28' W 118°31'0 0.0
2017-May-23 23:28N 33°28' W 118°31'0 0.0
2017-May-23 23:00N 33°28' W 118°31'0 0.0
2017-May-23 21:29N 33°28' W 118°31'0 0.0
2017-May-23 20:52N 33°28' W 118°31'0 0.0
2017-May-23 20:25N 33°28' W 118°31'0 0.0
2017-May-23 19:46N 33°28' W 118°31'0 0.0
2017-May-23 19:30N 33°28' W 118°31'0 0.0
2017-May-23 19:00N 33°28' W 118°31'0 0.1
2017-May-23 18:28N 33°28' W 118°31'1 1.5
2017-May-23 18:00N 33°29' W 118°32'1 2.6
2017-May-23 17:28N 33°30' W 118°33'2 4.0
2017-May-23 16:59N 33°31' W 118°34'3 5.5
2017-May-23 16:30N 33°33' W 118°37'1 2.9
2017-May-23 16:00N 33°33' W 118°38'1 1.2
2017-May-23 15:30N 33°33' W 118°39'1 2.7
2017-May-23 15:00N 33°32' W 118°38'5 5.2
2017-May-23 14:00N 33°30' W 118°32'2 3.4
2017-May-23 13:18N 33°28' W 118°30'2 6.7
2017-May-23 12:59N 33°27' W 118°27'3 5.4
2017-May-23 12:30N 33°26' W 118°25'3 5.2
2017-May-23 12:00N 33°25' W 118°22'1 2.2
2017-May-23 11:30N 33°24' W 118°22'0 0.0
2017-May-23 09:43N 33°24' W 118°22'0 0.0
2017-May-23 09:25N 33°24' W 118°22'0 0.0
2017-May-23 08:55N 33°24' W 118°22'0 0.0
2017-May-23 08:28N 33°24' W 118°22'0 0.0
2017-May-23 07:55N 33°24' W 118°22'0 0.0
2017-May-23 07:19N 33°24' W 118°22'0 0.0
2017-May-23 06:49N 33°24' W 118°22'0 0.0
2017-May-23 05:13N 33°24' W 118°22'0 0.0
2017-May-23 04:58N 33°24' W 118°22'0 0.0
2017-May-23 04:30N 33°24' W 118°22'0 0.0
2017-May-23 04:00N 33°24' W 118°22'0 0.0
2017-May-23 03:30N 33°24' W 118°22'0 0.0
2017-May-23 03:00N 33°24' W 118°22'0 0.0
2017-May-23 02:26N 33°24' W 118°22'0 0.0
2017-May-23 01:59N 33°24' W 118°22'0 0.0
2017-May-23 01:30N 33°24' W 118°22'0 0.4
2017-May-23 01:00N 33°24' W 118°22'2 4.3
2017-May-23 00:29N 33°26' W 118°23'7 6.5
2017-May-22 23:28N 33°32' W 118°19'4 5.5
2017-May-22 22:47N 33°35' W 118°17'2 5.0
2017-May-22 22:28N 33°36' W 118°15'2 4.8
2017-May-22 22:00N 33°38' W 118°14'2 4.7
2017-May-22 21:30N 33°41' W 118°14'2 3.8
2017-May-22 21:00N 33°42' W 118°15'1 2.6
2017-May-22 20:30N 33°43' W 118°16'1 0.3
2017-May-22 17:51N 33°44' W 118°17'0 0.0
2017-May-22 17:29N 33°44' W 118°17'0 0.0
2017-May-22 15:15N 33°44' W 118°17'0 0.0
2017-May-22 14:00N 33°44' W 118°17'0 0.0
2017-May-22 07:33N 33°44' W 118°17'0 0.0
2017-May-22 07:13N 33°44' W 118°17'0 0.0
2017-May-22 00:25N 33°44' W 118°17'0 0.0
2017-May-21 23:55N 33°44' W 118°17'0 0.0
2017-May-21 23:29N 33°44' W 118°17'0 0.0
2017-May-21 23:00N 33°44' W 118°17'0 0.0
2017-May-21 22:23N 33°44' W 118°17'0 0.0
2017-May-21 21:57N 33°44' W 118°17'0 0.0
2017-May-21 21:22N 33°44' W 118°17'0 0.0
2017-May-21 20:56N 33°44' W 118°17'0 0.0
2017-May-21 13:29N 33°44' W 118°17'0 0.0
2017-May-21 12:23N 33°44' W 118°17'0 0.0
2017-May-21 12:00N 33°44' W 118°17'0 0.0
2017-May-21 09:35N 33°44' W 118°17'0 0.0
2017-May-21 09:29N 33°44' W 118°17'0 0.0
2017-May-21 08:59N 33°44' W 118°17'0 0.0
2017-May-21 08:30N 33°44' W 118°17'0 0.0
2017-May-21 07:44N 33°44' W 118°17'0 0.0
2017-May-21 07:29N 33°44' W 118°17'0 0.0
2017-May-21 06:59N 33°44' W 118°17'0 0.0
2017-May-21 06:29N 33°44' W 118°17'0 0.0
2017-May-21 05:57N 33°44' W 118°17'0 0.0
2017-May-21 05:26N 33°44' W 118°17'0 0.0
2017-May-21 04:52N 33°44' W 118°17'0 0.0
2017-May-21 03:37N 33°44' W 118°17'0 0.0
2017-May-21 03:29N 33°44' W 118°17'0 0.0
2017-May-21 02:48N 33°44' W 118°17'0 0.0
2017-May-21 02:09N 33°44' W 118°17'0 0.0
2017-May-21 01:53N 33°44' W 118°17'0 0.0
2017-May-19 23:59N 33°44' W 118°17'0 0.0
2017-May-19 23:30N 33°44' W 118°17'0 0.0
2017-May-19 22:58N 33°44' W 118°17'0 0.0
2017-May-19 22:29N 33°44' W 118°17'0 0.2
2017-May-19 19:42N 33°44' W 118°17'0 0.3
2017-May-19 19:25N 33°44' W 118°17'1 1.4
2017-May-19 18:44N 33°43' W 118°16'0 1.5
2017-May-19 18:29N 33°43' W 118°16'0 0.6
2017-May-19 18:00N 33°43' W 118°16'1 1.1
2017-May-19 17:30N 33°43' W 118°16'1 1.1
2017-May-19 16:46N 33°44' W 118°17'0 0.0
2017-May-19 14:56N 33°44' W 118°17'0 0.0
2017-May-19 13:59N 33°44' W 118°17'  

Dump ship's entire track history